Map

Track Data

SID SEASON NUMBER BASIN SUBBASIN NAME ISO_TIME NATURE LAT LON WMO_WIND WMO_PRES WMO_AGENCY TRACK_TYPE DIST2LAND LANDFALL IFLAG USA_AGENCY USA_ATCF_ID USA_LAT USA_LON USA_RECORD USA_STATUS USA_WIND USA_PRES USA_SSHS USA_R34_NE USA_R34_SE USA_R34_SW USA_R34_NW USA_R50_NE USA_R50_SE USA_R50_SW USA_R50_NW USA_R64_NE USA_R64_SE USA_R64_SW USA_R64_NW USA_POCI USA_ROCI USA_RMW USA_EYE TOKYO_LAT TOKYO_LON TOKYO_GRADE TOKYO_WIND TOKYO_PRES TOKYO_R50_DIR TOKYO_R50_LONG TOKYO_R50_SHORT TOKYO_R30_DIR TOKYO_R30_LONG TOKYO_R30_SHORT TOKYO_LAND CMA_LAT CMA_LON CMA_CAT CMA_WIND CMA_PRES HKO_LAT HKO_LON HKO_CAT HKO_WIND HKO_PRES NEWDELHI_LAT NEWDELHI_LON NEWDELHI_GRADE NEWDELHI_WIND NEWDELHI_PRES NEWDELHI_CI NEWDELHI_DP NEWDELHI_POCI REUNION_LAT REUNION_LON REUNION_TYPE REUNION_WIND REUNION_PRES REUNION_TNUM REUNION_CI REUNION_RMW REUNION_R34_NE REUNION_R34_SE REUNION_R34_SW REUNION_R34_NW REUNION_R50_NE REUNION_R50_SE REUNION_R50_SW REUNION_R50_NW REUNION_R64_NE REUNION_R64_SE REUNION_R64_SW REUNION_R64_NW BOM_LAT BOM_LON BOM_TYPE BOM_WIND BOM_PRES BOM_TNUM BOM_CI BOM_RMW BOM_R34_NE BOM_R34_SE BOM_R34_SW BOM_R34_NW BOM_R50_NE BOM_R50_SE BOM_R50_SW BOM_R50_NW BOM_R64_NE BOM_R64_SE BOM_R64_SW BOM_R64_NW BOM_ROCI BOM_POCI BOM_EYE BOM_POS_METHOD BOM_PRES_METHOD NADI_LAT NADI_LON NADI_CAT NADI_WIND NADI_PRES WELLINGTON_LAT WELLINGTON_LON WELLINGTON_WIND WELLINGTON_PRES DS824_LAT DS824_LON DS824_STAGE DS824_WIND DS824_PRES TD9636_LAT TD9636_LON TD9636_STAGE TD9636_WIND TD9636_PRES TD9635_LAT TD9635_LON TD9635_WIND TD9635_PRES TD9635_ROCI NEUMANN_LAT NEUMANN_LON NEUMANN_CLASS NEUMANN_WIND NEUMANN_PRES MLC_LAT MLC_LON MLC_CLASS MLC_WIND MLC_PRES USA_GUST BOM_GUST BOM_GUST_PER REUNION_GUST REUNION_GUST_PER USA_SEAHGT USA_SEARAD_NE USA_SEARAD_SE USA_SEARAD_SW USA_SEARAD_NW STORM_SPEED STORM_DIR
2002258N15256 2002 68 EP MM ISELLE 2002-09-15 06:00:00 TS 15.2000 -103.800 25 1005 hurdat_epa main 338 327 O_____________ hurdat_epa EP122002 15.2000 -103.800 TD 25 1005 -1 1009 180 45 9 295
2002258N15256 2002 68 EP MM ISELLE 2002-09-15 09:00:00 TS 15.3827 -104.200 main 330 320 P_____________ EP122002 15.3827 -104.200 TD 25 1005 -1 1009 180 45 9 297
2002258N15256 2002 68 EP MM ISELLE 2002-09-15 12:00:00 TS 15.6000 -104.600 25 1005 hurdat_epa main 324 312 O_____________ hurdat_epa EP122002 15.6000 -104.600 TD 25 1005 -1 1009 180 45 9 302
2002258N15256 2002 68 EP MM ISELLE 2002-09-15 15:00:00 TS 15.8772 -105.013 main 312 308 P_____________ EP122002 15.8772 -105.013 TD 27 1005 -1 1009 190 45 11 305
2002258N15256 2002 68 EP MM ISELLE 2002-09-15 18:00:00 TS 16.2000 -105.500 30 1005 hurdat_epa main 316 315 O_____________ hurdat_epa EP122002 16.2000 -105.500 TD 30 1005 -1 1009 200 45 13 301
2002258N15256 2002 68 EP MM ISELLE 2002-09-15 21:00:00 TS 16.5352 -106.142 main 331 326 P_____________ EP122002 16.5352 -106.142 TD 35 1003 0 100 50 50 75 1009 200 45 14 299
2002258N15256 2002 68 EP MM ISELLE 2002-09-16 00:00:00 TS 16.9000 -106.800 40 1001 hurdat_epa main 333 330 O_____________ hurdat_epa EP122002 16.9000 -106.800 TS 40 1001 0 200 100 100 150 1009 200 45 14 304
2002258N15256 2002 68 EP MM ISELLE 2002-09-16 03:00:00 TS 17.2996 -107.308 main 337 337 P_____________ EP122002 17.2996 -107.308 TS 40 1000 0 200 100 100 150 1009 200 45 12 310
2002258N15256 2002 68 EP MM ISELLE 2002-09-16 06:00:00 TS 17.7000 -107.800 40 1000 hurdat_epa main 345 345 O_____________ hurdat_epa EP122002 17.7000 -107.800 TS 40 1000 0 200 100 100 150 1009 200 45 13 307
2002258N15256 2002 68 EP MM ISELLE 2002-09-16 09:00:00 TS 18.0498 -108.370 main 377 371 P_____________ EP122002 18.0498 -108.370 TS 42 999 0 175 100 100 125 1007 175 45 13 302
2002258N15256 2002 68 EP MM ISELLE 2002-09-16 12:00:00 TS 18.4000 -109.000 45 998 hurdat_epa main 408 408 O_____________ hurdat_epa EP122002 18.4000 -109.000 TS 45 998 0 150 100 100 100 1006 150 45 15 300
2002258N15256 2002 68 EP MM ISELLE 2002-09-16 15:00:00 TS 18.7926 -109.700 main 455 414 P_____________ EP122002 18.7926 -109.700 TS 45 998 0 150 125 137 80 1006 150 45 16 301
2002258N15256 2002 68 EP MM ISELLE 2002-09-16 18:00:00 TS 19.2000 -110.400 45 998 hurdat_epa main 415 380 O_____________ hurdat_epa EP122002 19.2000 -110.400 TS 45 998 0 150 150 175 60 1006 150 45 15 303
2002258N15256 2002 68 EP MM ISELLE 2002-09-16 21:00:00 TS 19.6223 -111.038 main 383 359 P_____________ EP122002 19.6223 -111.038 TS 47 997 0 150 150 175 60 1006 162 45 14 305
2002258N15256 2002 68 EP MM ISELLE 2002-09-17 00:00:00 TS 20.0000 -111.600 50 996 hurdat_epa main 364 359 O_____________ hurdat_epa EP122002 20.0000 -111.600 TS 50 996 0 150 150 175 60 1006 175 45 12 303
2002258N15256 2002 68 EP MM ISELLE 2002-09-17 03:00:00 TS 20.2648 -112.088 main 362 362 P_____________ EP122002 20.2648 -112.088 TS 52 995 0 137 137 162 67 1007 187 42 10 301
2002258N15256 2002 68 EP MM ISELLE 2002-09-17 06:00:00 TS 20.5000 -112.500 55 994 hurdat_epa main 372 371 O_____________ hurdat_epa EP122002 20.5000 -112.500 TS 55 994 0 125 125 150 75 1009 200 40 9 307
2002258N15256 2002 68 EP MM ISELLE 2002-09-17 09:00:00 TS 20.7998 -112.858 main 380 373 P_____________ EP122002 20.7998 -112.858 TS 55 994 0 125 125 150 75 1008 200 32 9 312
2002258N15256 2002 68 EP MM ISELLE 2002-09-17 12:00:00 TS 21.1000 -113.200 55 994 hurdat_epa main 386 386 O_____________ hurdat_epa EP122002 21.1000 -113.200 TS 55 994 0 125 125 150 75 1008 200 25 9 309
2002258N15256 2002 68 EP MM ISELLE 2002-09-17 15:00:00 TS 21.3726 -113.607 main 392 387 P_____________ EP122002 21.3726 -113.607 TS 57 992 0 112 112 137 87 1008 205 25 9 304
2002258N15256 2002 68 EP MM ISELLE 2002-09-17 18:00:00 TS 21.6000 -114.000 60 990 hurdat_epa main 394 391 O_____________ hurdat_epa EP122002 21.6000 -114.000 TS 60 990 0 100 100 125 100 1008 210 25 8 299
2002258N15256 2002 68 EP MM ISELLE 2002-09-17 21:00:00 TS 21.7725 -114.383 main 400 400 P_____________ EP122002 21.7725 -114.383 TS 60 990 0 100 100 125 100 1008 210 25 6 298
2002258N15256 2002 68 EP MM ISELLE 2002-09-18 00:00:00 TS 21.9000 -114.600 60 990 hurdat_epa main 403 388 O_____________ hurdat_epa EP122002 21.9000 -114.600 TS 60 990 0 100 100 125 100 1008 210 25 3 334
2002258N15256 2002 68 EP MM ISELLE 2002-09-18 03:00:00 TS 22.0075 -114.510 main 388 367 P_____________ EP122002 22.0075 -114.510 TS 52 994 0 80 80 107 90 1008 195 25 3 54
2002258N15256 2002 68 EP MM ISELLE 2002-09-18 06:00:00 TS 22.1000 -114.300 45 998 hurdat_epa main 367 352 O_____________ hurdat_epa EP122002 22.1000 -114.300 TS 45 998 0 60 60 90 80 1009 180 25 4 58
2002258N15256 2002 68 EP MM ISELLE 2002-09-18 09:00:00 TS 22.2000 -114.185 main 352 336 P_____________ EP122002 22.2000 -114.185 TS 42 1000 0 60 60 75 70 1008 190 25 3 43
2002258N15256 2002 68 EP MM ISELLE 2002-09-18 12:00:00 TS 22.3000 -114.100 40 1002 hurdat_epa main 336 328 O_____________ hurdat_epa EP122002 22.3000 -114.100 TS 40 1002 0 60 60 60 60 1008 200 25 2 31
2002258N15256 2002 68 EP MM ISELLE 2002-09-18 15:00:00 TS 22.4000 -114.057 main 328 312 P_____________ EP122002 22.4000 -114.057 TS 37 1003 0 60 60 60 60 1008 200 25 2 25
2002258N15256 2002 68 EP MM ISELLE 2002-09-18 18:00:00 TS 22.5000 -114.000 35 1005 hurdat_epa main 312 297 O_____________ hurdat_epa EP122002 22.5000 -114.000 TS 35 1005 0 60 60 60 60 1008 200 25 3 42
2002258N15256 2002 68 EP MM ISELLE 2002-09-18 21:00:00 TS 22.5925 -113.872 main 297 276 P_____________ EP122002 22.5925 -113.872 TS 35 1005 0 60 60 60 60 1008 200 25 3 54
2002258N15256 2002 68 EP MM ISELLE 2002-09-19 00:00:00 TS 22.7000 -113.700 35 1005 hurdat_epa main 276 255 O_____________ hurdat_epa EP122002 22.7000 -113.700 TS 35 1005 0 60 60 60 60 1008 200 25 4 55
2002258N15256 2002 68 EP MM ISELLE 2002-09-19 03:00:00 TS 22.8275 -113.507 main 255 225 P_____________ EP122002 22.8275 -113.507 TS 35 1005 0 55 55 55 55 1008 165 25 5 51
2002258N15256 2002 68 EP MM ISELLE 2002-09-19 06:00:00 TS 23.0000 -113.300 35 1005 hurdat_epa main 225 196 O_____________ hurdat_epa EP122002 23.0000 -113.300 TS 35 1005 0 50 50 50 50 1008 130 25 6 42
2002258N15256 2002 68 EP MM ISELLE 2002-09-19 09:00:00 TS 23.2500 -113.100 main 196 156 P_____________ EP122002 23.2500 -113.100 TS 35 1004 0 50 50 50 50 1008 165 25 6 36
2002258N15256 2002 68 EP MM ISELLE 2002-09-19 12:00:00 TS 23.5000 -112.900 35 1004 hurdat_epa main 156 127 O_____________ hurdat_epa EP122002 23.5000 -112.900 TS 35 1004 0 50 50 50 50 1008 200 25 6 44
2002258N15256 2002 68 EP MM ISELLE 2002-09-19 15:00:00 TS 23.6651 -112.663 main 127 105 P_____________ EP122002 23.6651 -112.663 TS 32 1004 -1 1008 175 25 5 51
2002258N15256 2002 68 EP MM ISELLE 2002-09-19 18:00:00 TS 23.8000 -112.500 30 1005 hurdat_epa main 105 97 O_____________ hurdat_epa EP122002 23.8000 -112.500 TD 30 1005 -1 1008 150 25 3 27
2002258N15256 2002 68 EP MM ISELLE 2002-09-19 21:00:00 TS 23.9425 -112.505 main 97 83 P_____________ EP122002 23.9425 -112.505 TD 27 1004 -1 1007 125 25 3 344
2002258N15256 2002 68 EP MM ISELLE 2002-09-20 00:00:00 TS 24.1000 -112.600 25 1003 hurdat_epa main 83 75 O_____________ hurdat_epa EP122002 24.1000 -112.600 TD 25 1003 -1 1006 100 25 4 334
2002258N15256 2002 68 EP MM ISELLE 2002-09-20 03:00:00 TS 24.2925 -112.692 main 75 67 P_____________ EP122002 24.2925 -112.692 TD 25 1004 -1 1007 80 25 4 336
2002258N15256 2002 68 EP MM ISELLE 2002-09-20 06:00:00 DS 24.5000 -112.800 25 1005 hurdat_epa main 69 64 O_____________ hurdat_epa EP122002 24.5000 -112.800 LO 25 1005 -3 1008 60 25 5 335
2002258N15256 2002 68 EP MM ISELLE 2002-09-20 09:00:00 DS 24.7025 -112.902 main 71 70 P_____________ EP122002 24.7025 -112.902 LO 22 1005 -3 1008 60 25 4 336
2002258N15256 2002 68 EP MM ISELLE 2002-09-20 12:00:00 DS 24.9000 -113.000 20 1006 hurdat_epa main 81 O_____________ hurdat_epa EP122002 24.9000 -113.000 LO 20 1006 -3 1008 60 25 4 336

About IBTrACS Database

This database is a web-friendly format of International Best Track Archive for Climate Stewardship (IBTrACS), a global best track data archive curated by NOAA dating back to 1842.

Updated: 2021-12-06